sensor_id;sensor_type;location;lat;lon;timestamp;temperature;humidity
22249;DHT22;67538;52.180;5.646;2024-02-26T00:00:42;4.90;99.90
22249;DHT22;67538;52.180;5.646;2024-02-26T00:03:10;5.00;99.90
22249;DHT22;67538;52.180;5.646;2024-02-26T00:05:37;4.90;99.90
22249;DHT22;67538;52.180;5.646;2024-02-26T00:08:05;4.90;99.90
22249;DHT22;67538;52.180;5.646;2024-02-26T00:10:32;4.90;99.90
22249;DHT22;67538;52.180;5.646;2024-02-26T00:13:00;4.90;99.90
22249;DHT22;67538;52.180;5.646;2024-02-26T00:15:27;4.90;99.90
22249;DHT22;67538;52.180;5.646;2024-02-26T00:17:54;4.90;99.90
22249;DHT22;67538;52.180;5.646;2024-02-26T00:20:23;4.90;99.90
22249;DHT22;67538;52.180;5.646;2024-02-26T00:22:50;4.90;99.90
22249;DHT22;67538;52.180;5.646;2024-02-26T00:25:17;4.80;99.90
22249;DHT22;67538;52.180;5.646;2024-02-26T00:27:44;4.90;99.90
22249;DHT22;67538;52.180;5.646;2024-02-26T00:30:12;4.80;99.90
22249;DHT22;67538;52.180;5.646;2024-02-26T00:32:39;4.80;99.90
22249;DHT22;67538;52.180;5.646;2024-02-26T00:35:06;4.80;99.90
22249;DHT22;67538;52.180;5.646;2024-02-26T00:37:36;4.70;99.90
22249;DHT22;67538;52.180;5.646;2024-02-26T00:40:04;4.70;99.90
22249;DHT22;67538;52.180;5.646;2024-02-26T00:42:32;4.70;99.90
22249;DHT22;67538;52.180;5.646;2024-02-26T00:44:59;4.70;99.90
22249;DHT22;67538;52.180;5.646;2024-02-26T00:47:26;4.70;99.90
22249;DHT22;67538;52.180;5.646;2024-02-26T00:49:53;4.60;99.90
22249;DHT22;67538;52.180;5.646;2024-02-26T00:52:20;4.60;99.90
22249;DHT22;67538;52.180;5.646;2024-02-26T00:54:49;4.60;99.90
22249;DHT22;67538;52.180;5.646;2024-02-26T00:57:16;4.60;99.90
22249;DHT22;67538;52.180;5.646;2024-02-26T00:59:43;4.60;99.90
22249;DHT22;67538;52.180;5.646;2024-02-26T01:02:10;4.60;99.90
22249;DHT22;67538;52.180;5.646;2024-02-26T01:04:37;4.60;99.90
22249;DHT22;67538;52.180;5.646;2024-02-26T01:07:04;4.60;99.90
22249;DHT22;67538;52.180;5.646;2024-02-26T01:09:31;4.60;99.90
22249;DHT22;67538;52.180;5.646;2024-02-26T01:11:59;4.60;99.90
22249;DHT22;67538;52.180;5.646;2024-02-26T01:14:28;4.60;99.90
22249;DHT22;67538;52.180;5.646;2024-02-26T01:16:55;4.60;99.90
22249;DHT22;67538;52.180;5.646;2024-02-26T01:19:22;4.60;99.90
22249;DHT22;67538;52.180;5.646;2024-02-26T01:21:49;4.60;99.90
22249;DHT22;67538;52.180;5.646;2024-02-26T01:24:16;4.60;99.90
22249;DHT22;67538;52.180;5.646;2024-02-26T01:26:44;4.60;99.90
22249;DHT22;67538;52.180;5.646;2024-02-26T01:29:12;4.60;99.90
22249;DHT22;67538;52.180;5.646;2024-02-26T01:31:39;4.60;99.90
22249;DHT22;67538;52.180;5.646;2024-02-26T01:34:06;4.60;99.90
22249;DHT22;67538;52.180;5.646;2024-02-26T01:36:33;4.60;99.90
22249;DHT22;67538;52.180;5.646;2024-02-26T01:39:01;4.60;99.90
22249;DHT22;67538;52.180;5.646;2024-02-26T01:41:29;4.60;99.90
22249;DHT22;67538;52.180;5.646;2024-02-26T01:43:56;4.60;99.90
22249;DHT22;67538;52.180;5.646;2024-02-26T01:46:24;4.70;99.90
22249;DHT22;67538;52.180;5.646;2024-02-26T01:48:52;4.70;99.90
22249;DHT22;67538;52.180;5.646;2024-02-26T01:51:19;4.60;99.90
22249;DHT22;67538;52.180;5.646;2024-02-26T01:53:46;4.70;99.90
22249;DHT22;67538;52.180;5.646;2024-02-26T01:56:14;4.70;99.90
22249;DHT22;67538;52.180;5.646;2024-02-26T01:58:43;4.70;99.90
22249;DHT22;67538;52.180;5.646;2024-02-26T02:01:11;4.70;99.90
22249;DHT22;67538;52.180;5.646;2024-02-26T02:03:40;4.70;99.90
22249;DHT22;67538;52.180;5.646;2024-02-26T02:06:07;4.70;99.90
22249;DHT22;67538;52.180;5.646;2024-02-26T02:08:35;4.70;99.90
22249;DHT22;67538;52.180;5.646;2024-02-26T02:11:03;4.70;99.90
22249;DHT22;67538;52.180;5.646;2024-02-26T02:13:30;4.80;99.90
22249;DHT22;67538;52.180;5.646;2024-02-26T02:15:57;4.80;99.90
22249;DHT22;67538;52.180;5.646;2024-02-26T02:18:24;4.80;99.90
22249;DHT22;67538;52.180;5.646;2024-02-26T02:20:53;4.80;99.90
22249;DHT22;67538;52.180;5.646;2024-02-26T02:23:22;4.80;99.90
22249;DHT22;67538;52.180;5.646;2024-02-26T02:25:49;4.90;99.90
22249;DHT22;67538;52.180;5.646;2024-02-26T02:28:16;4.80;99.90
22249;DHT22;67538;52.180;5.646;2024-02-26T02:30:43;4.90;99.90
22249;DHT22;67538;52.180;5.646;2024-02-26T02:33:10;4.90;99.90
22249;DHT22;67538;52.180;5.646;2024-02-26T02:35:38;4.90;99.90
22249;DHT22;67538;52.180;5.646;2024-02-26T02:38:06;4.90;99.90
22249;DHT22;67538;52.180;5.646;2024-02-26T02:40:33;4.90;99.90
22249;DHT22;67538;52.180;5.646;2024-02-26T02:43:00;4.90;99.90
22249;DHT22;67538;52.180;5.646;2024-02-26T02:45:28;4.80;99.90
22249;DHT22;67538;52.180;5.646;2024-02-26T02:47:55;4.80;99.90
22249;DHT22;67538;52.180;5.646;2024-02-26T02:50:22;4.80;99.90
22249;DHT22;67538;52.180;5.646;2024-02-26T02:52:49;4.80;99.90
22249;DHT22;67538;52.180;5.646;2024-02-26T02:55:18;4.80;99.90
22249;DHT22;67538;52.180;5.646;2024-02-26T02:57:45;4.80;99.90
22249;DHT22;67538;52.180;5.646;2024-02-26T03:00:13;4.80;99.90
22249;DHT22;67538;52.180;5.646;2024-02-26T03:02:40;4.80;99.90
22249;DHT22;67538;52.180;5.646;2024-02-26T03:05:08;4.80;99.90
22249;DHT22;67538;52.180;5.646;2024-02-26T03:07:36;4.80;99.90
22249;DHT22;67538;52.180;5.646;2024-02-26T03:10:03;4.80;99.90
22249;DHT22;67538;52.180;5.646;2024-02-26T03:12:32;4.70;99.90
22249;DHT22;67538;52.180;5.646;2024-02-26T03:14:59;4.80;99.90
22249;DHT22;67538;52.180;5.646;2024-02-26T03:17:28;4.80;99.90
22249;DHT22;67538;52.180;5.646;2024-02-26T03:19:55;4.80;99.90
22249;DHT22;67538;52.180;5.646;2024-02-26T03:22:22;4.80;99.90
22249;DHT22;67538;52.180;5.646;2024-02-26T03:24:49;4.70;99.90
22249;DHT22;67538;52.180;5.646;2024-02-26T03:27:16;4.70;99.90
22249;DHT22;67538;52.180;5.646;2024-02-26T03:29:45;4.70;99.90
22249;DHT22;67538;52.180;5.646;2024-02-26T03:32:13;4.80;99.90
22249;DHT22;67538;52.180;5.646;2024-02-26T03:34:40;4.70;99.90
22249;DHT22;67538;52.180;5.646;2024-02-26T03:37:07;4.70;99.90
22249;DHT22;67538;52.180;5.646;2024-02-26T03:39:35;4.70;99.90
22249;DHT22;67538;52.180;5.646;2024-02-26T03:42:03;4.70;99.90
22249;DHT22;67538;52.180;5.646;2024-02-26T03:44:30;4.70;99.90
22249;DHT22;67538;52.180;5.646;2024-02-26T03:46:59;4.70;99.90
22249;DHT22;67538;52.180;5.646;2024-02-26T03:49:26;4.70;99.90
22249;DHT22;67538;52.180;5.646;2024-02-26T03:51:54;4.70;99.90
22249;DHT22;67538;52.180;5.646;2024-02-26T03:54:21;4.70;99.90
22249;DHT22;67538;52.180;5.646;2024-02-26T03:56:48;4.70;99.90
22249;DHT22;67538;52.180;5.646;2024-02-26T03:59:15;4.80;99.90
22249;DHT22;67538;52.180;5.646;2024-02-26T04:01:45;4.70;99.90
22249;DHT22;67538;52.180;5.646;2024-02-26T04:04:14;4.70;99.90
22249;DHT22;67538;52.180;5.646;2024-02-26T04:06:44;4.70;99.90
22249;DHT22;67538;52.180;5.646;2024-02-26T04:09:11;4.80;99.90
22249;DHT22;67538;52.180;5.646;2024-02-26T04:11:38;4.70;99.90
22249;DHT22;67538;52.180;5.646;2024-02-26T04:14:05;4.70;99.90
22249;DHT22;67538;52.180;5.646;2024-02-26T04:16:34;4.70;99.90
22249;DHT22;67538;52.180;5.646;2024-02-26T04:19:01;4.70;99.90
22249;DHT22;67538;52.180;5.646;2024-02-26T04:21:29;4.80;99.90
22249;DHT22;67538;52.180;5.646;2024-02-26T04:23:56;4.80;99.90
22249;DHT22;67538;52.180;5.646;2024-02-26T04:26:27;4.80;99.90
22249;DHT22;67538;52.180;5.646;2024-02-26T04:28:54;4.80;99.90
22249;DHT22;67538;52.180;5.646;2024-02-26T04:31:21;4.80;99.90
22249;DHT22;67538;52.180;5.646;2024-02-26T04:33:48;4.80;99.90
22249;DHT22;67538;52.180;5.646;2024-02-26T04:36:15;4.80;99.90
22249;DHT22;67538;52.180;5.646;2024-02-26T04:38:44;4.80;99.90
22249;DHT22;67538;52.180;5.646;2024-02-26T04:41:11;4.80;99.90
22249;DHT22;67538;52.180;5.646;2024-02-26T04:43:38;4.80;99.90
22249;DHT22;67538;52.180;5.646;2024-02-26T04:46:07;4.90;99.90
22249;DHT22;67538;52.180;5.646;2024-02-26T04:48:35;4.90;99.90
22249;DHT22;67538;52.180;5.646;2024-02-26T04:51:02;4.90;99.90
22249;DHT22;67538;52.180;5.646;2024-02-26T04:53:29;4.90;99.90
22249;DHT22;67538;52.180;5.646;2024-02-26T04:55:58;4.90;99.90
22249;DHT22;67538;52.180;5.646;2024-02-26T04:58:25;4.90;99.90
22249;DHT22;67538;52.180;5.646;2024-02-26T05:00:52;4.90;99.90
22249;DHT22;67538;52.180;5.646;2024-02-26T05:03:19;4.90;99.90
22249;DHT22;67538;52.180;5.646;2024-02-26T05:05:46;4.90;99.90
22249;DHT22;67538;52.180;5.646;2024-02-26T05:08:13;4.90;99.90
22249;DHT22;67538;52.180;5.646;2024-02-26T05:10:40;4.90;99.90
22249;DHT22;67538;52.180;5.646;2024-02-26T05:13:10;4.90;99.90
22249;DHT22;67538;52.180;5.646;2024-02-26T05:15:37;4.90;99.90
22249;DHT22;67538;52.180;5.646;2024-02-26T05:18:05;4.90;99.90
22249;DHT22;67538;52.180;5.646;2024-02-26T05:20:33;4.90;99.90
22249;DHT22;67538;52.180;5.646;2024-02-26T05:23:01;4.90;99.90
22249;DHT22;67538;52.180;5.646;2024-02-26T05:25:29;4.90;99.90
22249;DHT22;67538;52.180;5.646;2024-02-26T05:27:56;4.90;99.90
22249;DHT22;67538;52.180;5.646;2024-02-26T05:30:24;4.90;99.90
22249;DHT22;67538;52.180;5.646;2024-02-26T05:32:52;4.90;99.90
22249;DHT22;67538;52.180;5.646;2024-02-26T05:35:19;4.90;99.90
22249;DHT22;67538;52.180;5.646;2024-02-26T05:37:46;4.90;99.90
22249;DHT22;67538;52.180;5.646;2024-02-26T05:40:14;4.90;99.90
22249;DHT22;67538;52.180;5.646;2024-02-26T05:42:41;4.90;99.90
22249;DHT22;67538;52.180;5.646;2024-02-26T05:45:10;4.90;99.90
22249;DHT22;67538;52.180;5.646;2024-02-26T05:47:39;4.90;99.90
22249;DHT22;67538;52.180;5.646;2024-02-26T05:50:09;4.90;99.90
22249;DHT22;67538;52.180;5.646;2024-02-26T05:52:36;4.90;99.90
22249;DHT22;67538;52.180;5.646;2024-02-26T05:55:05;4.90;99.90
22249;DHT22;67538;52.180;5.646;2024-02-26T05:57:32;4.90;99.90
22249;DHT22;67538;52.180;5.646;2024-02-26T05:59:59;4.90;99.90
22249;DHT22;67538;52.180;5.646;2024-02-26T06:02:29;4.90;99.90
22249;DHT22;67538;52.180;5.646;2024-02-26T06:04:58;4.90;99.90
22249;DHT22;67538;52.180;5.646;2024-02-26T06:07:25;4.90;99.90
22249;DHT22;67538;52.180;5.646;2024-02-26T06:09:52;4.90;99.90
22249;DHT22;67538;52.180;5.646;2024-02-26T06:12:19;4.90;99.90
22249;DHT22;67538;52.180;5.646;2024-02-26T06:14:47;4.90;99.90
22249;DHT22;67538;52.180;5.646;2024-02-26T06:17:14;5.00;99.90
22249;DHT22;67538;52.180;5.646;2024-02-26T06:19:42;4.90;99.90
22249;DHT22;67538;52.180;5.646;2024-02-26T06:22:10;4.90;99.90
22249;DHT22;67538;52.180;5.646;2024-02-26T06:24:37;4.90;99.90
22249;DHT22;67538;52.180;5.646;2024-02-26T06:27:06;4.90;99.90
22249;DHT22;67538;52.180;5.646;2024-02-26T06:29:34;5.00;99.90
22249;DHT22;67538;52.180;5.646;2024-02-26T06:32:01;5.00;99.90
22249;DHT22;67538;52.180;5.646;2024-02-26T06:34:28;5.00;99.90
22249;DHT22;67538;52.180;5.646;2024-02-26T06:36:55;5.00;99.90
22249;DHT22;67538;52.180;5.646;2024-02-26T06:39:23;5.00;99.90
22249;DHT22;67538;52.180;5.646;2024-02-26T06:41:50;5.00;99.90
22249;DHT22;67538;52.180;5.646;2024-02-26T06:44:23;5.00;99.90
22249;DHT22;67538;52.180;5.646;2024-02-26T06:46:51;5.00;99.90
22249;DHT22;67538;52.180;5.646;2024-02-26T06:49:18;5.00;99.90
22249;DHT22;67538;52.180;5.646;2024-02-26T06:51:45;5.10;99.90
22249;DHT22;67538;52.180;5.646;2024-02-26T06:54:12;5.10;99.90
22249;DHT22;67538;52.180;5.646;2024-02-26T06:56:41;5.10;99.90
22249;DHT22;67538;52.180;5.646;2024-02-26T06:59:08;5.10;99.90
22249;DHT22;67538;52.180;5.646;2024-02-26T07:01:35;5.10;99.90
22249;DHT22;67538;52.180;5.646;2024-02-26T07:04:02;5.20;99.90
22249;DHT22;67538;52.180;5.646;2024-02-26T07:06:29;5.10;99.90
22249;DHT22;67538;52.180;5.646;2024-02-26T07:08:56;5.20;99.90
22249;DHT22;67538;52.180;5.646;2024-02-26T07:11:23;5.20;99.90
22249;DHT22;67538;52.180;5.646;2024-02-26T07:13:52;5.20;99.90
22249;DHT22;67538;52.180;5.646;2024-02-26T07:16:19;5.20;99.90
22249;DHT22;67538;52.180;5.646;2024-02-26T07:18:46;5.20;99.90
22249;DHT22;67538;52.180;5.646;2024-02-26T07:21:13;5.20;99.90
22249;DHT22;67538;52.180;5.646;2024-02-26T07:23:40;5.30;99.90
22249;DHT22;67538;52.180;5.646;2024-02-26T07:26:08;5.30;99.90
22249;DHT22;67538;52.180;5.646;2024-02-26T07:28:37;5.30;99.90
22249;DHT22;67538;52.180;5.646;2024-02-26T07:31:05;5.30;99.90
22249;DHT22;67538;52.180;5.646;2024-02-26T07:33:32;5.30;99.90
22249;DHT22;67538;52.180;5.646;2024-02-26T07:35:59;5.30;99.90
22249;DHT22;67538;52.180;5.646;2024-02-26T07:38:27;5.30;99.90
22249;DHT22;67538;52.180;5.646;2024-02-26T07:40:54;5.30;99.90
22249;DHT22;67538;52.180;5.646;2024-02-26T07:43:22;5.20;99.90
22249;DHT22;67538;52.180;5.646;2024-02-26T07:45:49;5.30;99.90
22249;DHT22;67538;52.180;5.646;2024-02-26T07:48:18;5.30;99.90
22249;DHT22;67538;52.180;5.646;2024-02-26T07:50:45;5.20;99.90
22249;DHT22;67538;52.180;5.646;2024-02-26T07:53:13;5.30;99.90
22249;DHT22;67538;52.180;5.646;2024-02-26T07:55:40;5.30;99.90
22249;DHT22;67538;52.180;5.646;2024-02-26T07:58:07;5.30;99.90
22249;DHT22;67538;52.180;5.646;2024-02-26T08:00:34;5.30;99.90
22249;DHT22;67538;52.180;5.646;2024-02-26T08:03:01;5.30;99.90
22249;DHT22;67538;52.180;5.646;2024-02-26T08:05:30;5.30;99.90
22249;DHT22;67538;52.180;5.646;2024-02-26T08:07:57;5.40;99.90
22249;DHT22;67538;52.180;5.646;2024-02-26T08:10:24;5.40;99.90
22249;DHT22;67538;52.180;5.646;2024-02-26T08:12:51;5.40;99.90
22249;DHT22;67538;52.180;5.646;2024-02-26T08:15:18;5.40;99.90
22249;DHT22;67538;52.180;5.646;2024-02-26T08:17:45;5.40;99.90
22249;DHT22;67538;52.180;5.646;2024-02-26T08:20:13;5.40;99.90
22249;DHT22;67538;52.180;5.646;2024-02-26T08:22:42;5.50;99.90
22249;DHT22;67538;52.180;5.646;2024-02-26T08:25:09;5.50;99.90
22249;DHT22;67538;52.180;5.646;2024-02-26T08:27:37;5.50;99.90
22249;DHT22;67538;52.180;5.646;2024-02-26T08:30:05;5.50;99.90
22249;DHT22;67538;52.180;5.646;2024-02-26T08:32:33;5.50;99.90
22249;DHT22;67538;52.180;5.646;2024-02-26T08:35:00;5.50;99.90
22249;DHT22;67538;52.180;5.646;2024-02-26T08:37:27;5.50;99.90
22249;DHT22;67538;52.180;5.646;2024-02-26T08:39:55;5.50;99.90
22249;DHT22;67538;52.180;5.646;2024-02-26T08:42:22;5.50;99.90
22249;DHT22;67538;52.180;5.646;2024-02-26T08:44:50;5.50;99.90
22249;DHT22;67538;52.180;5.646;2024-02-26T08:47:17;5.50;99.90
22249;DHT22;67538;52.180;5.646;2024-02-26T08:49:45;5.50;99.90
22249;DHT22;67538;52.180;5.646;2024-02-26T08:52:12;5.50;99.90
22249;DHT22;67538;52.180;5.646;2024-02-26T08:54:39;5.50;99.90
22249;DHT22;67538;52.180;5.646;2024-02-26T08:57:07;5.50;99.90
22249;DHT22;67538;52.180;5.646;2024-02-26T08:59:35;5.50;99.90
22249;DHT22;67538;52.180;5.646;2024-02-26T09:02:02;5.50;99.90
22249;DHT22;67538;52.180;5.646;2024-02-26T09:04:29;5.50;99.90
22249;DHT22;67538;52.180;5.646;2024-02-26T09:06:57;5.50;99.90
22249;DHT22;67538;52.180;5.646;2024-02-26T09:09:24;5.50;99.90
22249;DHT22;67538;52.180;5.646;2024-02-26T09:11:52;5.60;99.90
22249;DHT22;67538;52.180;5.646;2024-02-26T09:14:22;5.60;99.90
22249;DHT22;67538;52.180;5.646;2024-02-26T09:16:49;5.60;99.90
22249;DHT22;67538;52.180;5.646;2024-02-26T09:19:17;5.60;99.90
22249;DHT22;67538;52.180;5.646;2024-02-26T09:21:44;5.60;99.90
22249;DHT22;67538;52.180;5.646;2024-02-26T09:24:12;5.70;99.90
22249;DHT22;67538;52.180;5.646;2024-02-26T09:26:39;5.70;99.90
22249;DHT22;67538;52.180;5.646;2024-02-26T09:29:06;5.60;99.90
22249;DHT22;67538;52.180;5.646;2024-02-26T09:31:35;5.70;99.90
22249;DHT22;67538;52.180;5.646;2024-02-26T09:34:02;5.70;99.90
22249;DHT22;67538;52.180;5.646;2024-02-26T09:36:30;5.70;99.90
22249;DHT22;67538;52.180;5.646;2024-02-26T09:38:57;5.80;99.90
22249;DHT22;67538;52.180;5.646;2024-02-26T09:41:28;5.80;99.90
22249;DHT22;67538;52.180;5.646;2024-02-26T09:43:57;5.80;99.90
22249;DHT22;67538;52.180;5.646;2024-02-26T09:46:25;5.80;99.90
22249;DHT22;67538;52.180;5.646;2024-02-26T09:48:54;5.80;99.90
22249;DHT22;67538;52.180;5.646;2024-02-26T09:51:23;5.80;99.90
22249;DHT22;67538;52.180;5.646;2024-02-26T09:53:52;5.80;99.90
22249;DHT22;67538;52.180;5.646;2024-02-26T09:56:20;5.80;99.90
22249;DHT22;67538;52.180;5.646;2024-02-26T09:58:48;5.80;99.90
22249;DHT22;67538;52.180;5.646;2024-02-26T10:01:20;5.90;99.90
22249;DHT22;67538;52.180;5.646;2024-02-26T10:03:56;5.90;99.90
22249;DHT22;67538;52.180;5.646;2024-02-26T10:06:25;5.90;99.90
22249;DHT22;67538;52.180;5.646;2024-02-26T10:08:54;5.90;99.90
22249;DHT22;67538;52.180;5.646;2024-02-26T10:11:22;5.90;99.90
22249;DHT22;67538;52.180;5.646;2024-02-26T10:13:50;6.00;99.90
22249;DHT22;67538;52.180;5.646;2024-02-26T10:16:17;6.00;99.90
22249;DHT22;67538;52.180;5.646;2024-02-26T10:18:46;6.00;99.90
22249;DHT22;67538;52.180;5.646;2024-02-26T10:21:16;6.00;99.90
22249;DHT22;67538;52.180;5.646;2024-02-26T10:23:43;6.00;99.90
22249;DHT22;67538;52.180;5.646;2024-02-26T10:26:12;6.00;99.90
22249;DHT22;67538;52.180;5.646;2024-02-26T10:28:39;6.00;99.90
22249;DHT22;67538;52.180;5.646;2024-02-26T10:31:06;6.00;99.90
22249;DHT22;67538;52.180;5.646;2024-02-26T10:33:34;6.00;99.90
22249;DHT22;67538;52.180;5.646;2024-02-26T10:36:02;6.00;99.90
22249;DHT22;67538;52.180;5.646;2024-02-26T10:38:32;6.00;99.90
22249;DHT22;67538;52.180;5.646;2024-02-26T10:41:00;6.00;99.90
22249;DHT22;67538;52.180;5.646;2024-02-26T10:43:30;6.10;99.90
22249;DHT22;67538;52.180;5.646;2024-02-26T10:45:58;6.00;99.90
22249;DHT22;67538;52.180;5.646;2024-02-26T10:48:25;6.10;99.90
22249;DHT22;67538;52.180;5.646;2024-02-26T10:50:52;6.10;99.90
22249;DHT22;67538;52.180;5.646;2024-02-26T10:53:21;6.10;99.90
22249;DHT22;67538;52.180;5.646;2024-02-26T10:55:55;6.10;99.90
22249;DHT22;67538;52.180;5.646;2024-02-26T10:58:24;6.10;99.90
22249;DHT22;67538;52.180;5.646;2024-02-26T11:00:52;6.20;99.90
22249;DHT22;67538;52.180;5.646;2024-02-26T11:03:20;6.20;99.90
22249;DHT22;67538;52.180;5.646;2024-02-26T11:05:49;6.20;99.90
22249;DHT22;67538;52.180;5.646;2024-02-26T11:08:16;6.20;99.90
22249;DHT22;67538;52.180;5.646;2024-02-26T11:10:46;6.20;99.90
22249;DHT22;67538;52.180;5.646;2024-02-26T11:13:18;6.20;99.90
22249;DHT22;67538;52.180;5.646;2024-02-26T11:15:46;6.20;99.90
22249;DHT22;67538;52.180;5.646;2024-02-26T11:18:15;6.20;99.90
22249;DHT22;67538;52.180;5.646;2024-02-26T11:20:42;6.20;99.90
22249;DHT22;67538;52.180;5.646;2024-02-26T11:23:10;6.20;99.90
22249;DHT22;67538;52.180;5.646;2024-02-26T11:25:37;6.20;99.90
22249;DHT22;67538;52.180;5.646;2024-02-26T11:28:08;6.20;99.90
22249;DHT22;67538;52.180;5.646;2024-02-26T11:30:39;6.10;99.90
22249;DHT22;67538;52.180;5.646;2024-02-26T11:33:08;6.20;99.90
22249;DHT22;67538;52.180;5.646;2024-02-26T11:35:36;6.20;99.90
22249;DHT22;67538;52.180;5.646;2024-02-26T11:38:04;6.30;99.90
22249;DHT22;67538;52.180;5.646;2024-02-26T11:40:32;6.30;99.90
22249;DHT22;67538;52.180;5.646;2024-02-26T11:43:00;6.30;99.90
22249;DHT22;67538;52.180;5.646;2024-02-26T11:45:53;6.30;99.90
22249;DHT22;67538;52.180;5.646;2024-02-26T11:48:25;6.30;99.90
22249;DHT22;67538;52.180;5.646;2024-02-26T11:50:54;6.30;99.90
22249;DHT22;67538;52.180;5.646;2024-02-26T11:53:22;6.30;99.90
22249;DHT22;67538;52.180;5.646;2024-02-26T11:56:23;6.30;99.90
22249;DHT22;67538;52.180;5.646;2024-02-26T11:59:01;6.40;99.90
22249;DHT22;67538;52.180;5.646;2024-02-26T12:01:38;6.30;99.90
22249;DHT22;67538;52.180;5.646;2024-02-26T12:04:06;6.30;99.90
22249;DHT22;67538;52.180;5.646;2024-02-26T12:06:41;6.30;99.90
22249;DHT22;67538;52.180;5.646;2024-02-26T12:09:09;6.30;99.90
22249;DHT22;67538;52.180;5.646;2024-02-26T12:11:38;6.30;99.90
22249;DHT22;67538;52.180;5.646;2024-02-26T12:14:07;6.30;99.90
22249;DHT22;67538;52.180;5.646;2024-02-26T12:16:39;6.20;99.90
22249;DHT22;67538;52.180;5.646;2024-02-26T12:19:09;6.20;99.90
22249;DHT22;67538;52.180;5.646;2024-02-26T12:21:37;6.20;99.90
22249;DHT22;67538;52.180;5.646;2024-02-26T12:24:10;6.20;99.90
22249;DHT22;67538;52.180;5.646;2024-02-26T12:26:38;6.30;99.90
22249;DHT22;67538;52.180;5.646;2024-02-26T12:29:05;6.20;99.90
22249;DHT22;67538;52.180;5.646;2024-02-26T12:31:33;6.20;99.90
22249;DHT22;67538;52.180;5.646;2024-02-26T12:34:04;6.30;99.90
22249;DHT22;67538;52.180;5.646;2024-02-26T12:36:32;6.20;99.90
22249;DHT22;67538;52.180;5.646;2024-02-26T12:39:00;6.30;99.90
22249;DHT22;67538;52.180;5.646;2024-02-26T12:41:28;6.30;99.90
22249;DHT22;67538;52.180;5.646;2024-02-26T12:43:56;6.30;99.90
22249;DHT22;67538;52.180;5.646;2024-02-26T12:46:24;6.30;99.90
22249;DHT22;67538;52.180;5.646;2024-02-26T12:48:51;6.30;99.90
22249;DHT22;67538;52.180;5.646;2024-02-26T12:51:21;6.40;99.90
22249;DHT22;67538;52.180;5.646;2024-02-26T12:53:49;6.30;99.90
22249;DHT22;67538;52.180;5.646;2024-02-26T12:56:18;6.30;99.90
22249;DHT22;67538;52.180;5.646;2024-02-26T12:58:45;6.30;99.90
22249;DHT22;67538;52.180;5.646;2024-02-26T13:01:16;6.40;99.90
22249;DHT22;67538;52.180;5.646;2024-02-26T13:03:44;6.30;99.90
22249;DHT22;67538;52.180;5.646;2024-02-26T13:06:12;6.30;99.90
22249;DHT22;67538;52.180;5.646;2024-02-26T13:08:41;6.40;99.90
22249;DHT22;67538;52.180;5.646;2024-02-26T13:11:08;6.40;99.90
22249;DHT22;67538;52.180;5.646;2024-02-26T13:13:35;6.40;99.90
22249;DHT22;67538;52.180;5.646;2024-02-26T13:16:04;6.40;99.90
22249;DHT22;67538;52.180;5.646;2024-02-26T13:18:32;6.30;99.90
22249;DHT22;67538;52.180;5.646;2024-02-26T13:21:09;6.40;99.90
22249;DHT22;67538;52.180;5.646;2024-02-26T13:23:37;6.40;99.90
22249;DHT22;67538;52.180;5.646;2024-02-26T13:26:05;6.40;99.90
22249;DHT22;67538;52.180;5.646;2024-02-26T13:28:34;6.40;99.90
22249;DHT22;67538;52.180;5.646;2024-02-26T13:31:01;6.40;99.90
22249;DHT22;67538;52.180;5.646;2024-02-26T13:33:31;6.40;99.90
22249;DHT22;67538;52.180;5.646;2024-02-26T13:35:59;6.50;99.90
22249;DHT22;67538;52.180;5.646;2024-02-26T13:38:27;6.50;99.90
22249;DHT22;67538;52.180;5.646;2024-02-26T13:40:54;6.50;99.90
22249;DHT22;67538;52.180;5.646;2024-02-26T13:43:23;6.50;99.90
22249;DHT22;67538;52.180;5.646;2024-02-26T13:45:50;6.60;99.90
22249;DHT22;67538;52.180;5.646;2024-02-26T13:48:17;6.60;99.90
22249;DHT22;67538;52.180;5.646;2024-02-26T13:50:44;6.60;99.90
22249;DHT22;67538;52.180;5.646;2024-02-26T13:53:14;6.60;99.90
22249;DHT22;67538;52.180;5.646;2024-02-26T13:55:42;6.70;99.90
22249;DHT22;67538;52.180;5.646;2024-02-26T13:58:12;6.70;99.90
22249;DHT22;67538;52.180;5.646;2024-02-26T14:00:41;6.60;99.90
22249;DHT22;67538;52.180;5.646;2024-02-26T14:03:08;6.70;99.90
22249;DHT22;67538;52.180;5.646;2024-02-26T14:05:35;6.60;99.90
22249;DHT22;67538;52.180;5.646;2024-02-26T14:08:02;6.70;99.90
22249;DHT22;67538;52.180;5.646;2024-02-26T14:10:29;6.70;99.90
22249;DHT22;67538;52.180;5.646;2024-02-26T14:12:57;6.80;99.90
22249;DHT22;67538;52.180;5.646;2024-02-26T14:15:24;6.70;99.90
22249;DHT22;67538;52.180;5.646;2024-02-26T14:17:53;6.80;99.90
22249;DHT22;67538;52.180;5.646;2024-02-26T14:20:22;6.80;99.90
22249;DHT22;67538;52.180;5.646;2024-02-26T14:22:49;6.80;99.90
22249;DHT22;67538;52.180;5.646;2024-02-26T14:25:18;6.80;99.90
22249;DHT22;67538;52.180;5.646;2024-02-26T14:27:45;6.70;99.90
22249;DHT22;67538;52.180;5.646;2024-02-26T14:30:12;6.70;99.90
22249;DHT22;67538;52.180;5.646;2024-02-26T14:32:40;6.70;99.90
22249;DHT22;67538;52.180;5.646;2024-02-26T14:35:09;6.70;99.90
22249;DHT22;67538;52.180;5.646;2024-02-26T14:37:36;6.70;99.90
22249;DHT22;67538;52.180;5.646;2024-02-26T14:40:04;6.70;99.90
22249;DHT22;67538;52.180;5.646;2024-02-26T14:42:32;6.70;99.90
22249;DHT22;67538;52.180;5.646;2024-02-26T14:44:59;6.70;99.90
22249;DHT22;67538;52.180;5.646;2024-02-26T14:47:26;6.70;99.90
22249;DHT22;67538;52.180;5.646;2024-02-26T14:49:54;6.70;99.90
22249;DHT22;67538;52.180;5.646;2024-02-26T14:52:22;6.70;99.90
22249;DHT22;67538;52.180;5.646;2024-02-26T14:54:49;6.70;99.90
22249;DHT22;67538;52.180;5.646;2024-02-26T14:57:17;6.70;99.90
22249;DHT22;67538;52.180;5.646;2024-02-26T14:59:44;6.70;99.90
22249;DHT22;67538;52.180;5.646;2024-02-26T15:02:11;6.70;99.90
22249;DHT22;67538;52.180;5.646;2024-02-26T15:04:38;6.70;99.90
22249;DHT22;67538;52.180;5.646;2024-02-26T15:07:05;6.70;99.90
22249;DHT22;67538;52.180;5.646;2024-02-26T15:09:34;6.70;99.90
22249;DHT22;67538;52.180;5.646;2024-02-26T15:12:02;6.70;99.90
22249;DHT22;67538;52.180;5.646;2024-02-26T15:14:30;6.70;99.90
22249;DHT22;67538;52.180;5.646;2024-02-26T15:16:57;6.70;99.90
22249;DHT22;67538;52.180;5.646;2024-02-26T15:19:25;6.80;99.90
22249;DHT22;67538;52.180;5.646;2024-02-26T15:21:52;6.70;99.90
22249;DHT22;67538;52.180;5.646;2024-02-26T15:24:19;6.80;99.90
22249;DHT22;67538;52.180;5.646;2024-02-26T15:26:47;6.80;99.90
22249;DHT22;67538;52.180;5.646;2024-02-26T15:29:14;6.80;99.90
22249;DHT22;67538;52.180;5.646;2024-02-26T15:31:41;6.70;99.90
22249;DHT22;67538;52.180;5.646;2024-02-26T15:34:09;6.80;99.90
22249;DHT22;67538;52.180;5.646;2024-02-26T15:36:36;6.70;99.90
22249;DHT22;67538;52.180;5.646;2024-02-26T15:39:03;6.70;99.90
22249;DHT22;67538;52.180;5.646;2024-02-26T15:41:30;6.70;99.90
22249;DHT22;67538;52.180;5.646;2024-02-26T15:43:59;6.70;99.90
22249;DHT22;67538;52.180;5.646;2024-02-26T15:46:26;6.70;99.90
22249;DHT22;67538;52.180;5.646;2024-02-26T15:48:56;6.70;99.90